createdAt,value
2018-01-03T00:00:25.057Z,979.26
2018-01-03T00:01:24.977Z,979.30
2018-01-03T00:02:24.896Z,979.33
2018-01-03T00:03:24.814Z,979.25
2018-01-03T00:04:24.735Z,979.18
2018-01-03T00:05:24.656Z,979.20
2018-01-03T00:06:24.580Z,979.15
2018-01-03T00:07:24.493Z,979.19
2018-01-03T00:08:24.412Z,979.05
2018-01-03T00:09:24.332Z,979.08
2018-01-03T00:10:24.254Z,979.11
2018-01-03T00:11:24.171Z,978.97
2018-01-03T00:12:24.090Z,978.94
2018-01-03T00:13:24.010Z,979.02
2018-01-03T00:14:23.930Z,978.82
2018-01-03T00:15:23.849Z,978.82
2018-01-03T00:16:23.768Z,978.74
2018-01-03T00:17:23.687Z,978.80
2018-01-03T00:18:23.607Z,978.76
2018-01-03T00:19:23.526Z,978.71
2018-01-03T00:20:23.446Z,978.71
2018-01-03T00:21:23.366Z,978.69
2018-01-03T00:22:23.285Z,978.75
2018-01-03T00:23:23.204Z,978.71
2018-01-03T00:24:23.124Z,978.72
2018-01-03T00:25:23.044Z,978.69
2018-01-03T00:26:22.963Z,978.64
2018-01-03T00:27:22.882Z,978.55
2018-01-03T00:28:22.802Z,978.51
2018-01-03T00:29:22.721Z,978.52
2018-01-03T00:30:22.641Z,978.52
2018-01-03T00:31:22.559Z,978.44
2018-01-03T00:32:22.479Z,978.41
2018-01-03T00:33:22.402Z,978.38
2018-01-03T00:34:22.319Z,978.33
2018-01-03T00:35:22.238Z,978.24
2018-01-03T00:36:22.157Z,978.29
2018-01-03T00:37:22.077Z,978.20
2018-01-03T00:38:21.997Z,978.30
2018-01-03T00:39:21.916Z,978.12
2018-01-03T00:40:21.836Z,978.13
2018-01-03T00:41:21.755Z,978.07
2018-01-03T00:42:21.675Z,978.04
2018-01-03T00:43:21.594Z,978.01
2018-01-03T00:44:21.515Z,977.99
2018-01-03T00:45:21.434Z,977.96
2018-01-03T00:46:21.353Z,977.96
2018-01-03T00:47:21.272Z,977.97
2018-01-03T00:48:21.192Z,977.89
2018-01-03T00:49:21.112Z,977.93
2018-01-03T00:50:21.032Z,977.84
2018-01-03T00:51:20.950Z,977.90
2018-01-03T00:52:20.870Z,977.90
2018-01-03T00:53:20.790Z,977.93
2018-01-03T00:54:20.740Z,977.89
2018-01-03T00:55:20.629Z,977.88
2018-01-03T00:56:20.548Z,977.82
2018-01-03T00:57:20.468Z,977.87
2018-01-03T00:58:20.391Z,977.94
2018-01-03T00:59:20.307Z,977.91
2018-01-03T01:00:20.227Z,977.97
2018-01-03T01:01:20.146Z,977.89
2018-01-03T01:02:20.067Z,977.87
2018-01-03T01:03:19.985Z,977.74
2018-01-03T01:04:19.906Z,977.74
2018-01-03T01:05:19.825Z,977.68
2018-01-03T01:06:19.746Z,977.58
2018-01-03T01:07:19.667Z,977.62
2018-01-03T01:08:19.584Z,977.47
2018-01-03T01:09:19.504Z,977.52
2018-01-03T01:10:19.424Z,977.43
2018-01-03T01:11:19.343Z,977.37
2018-01-03T01:12:19.263Z,977.43
2018-01-03T01:13:19.184Z,977.48
2018-01-03T01:14:19.103Z,977.56
2018-01-03T01:15:19.022Z,977.43
2018-01-03T01:16:18.942Z,977.39
2018-01-03T01:17:18.862Z,977.34
2018-01-03T01:18:18.781Z,977.32
2018-01-03T01:19:18.700Z,977.28
2018-01-03T01:20:18.620Z,977.33
2018-01-03T01:21:18.541Z,977.20
2018-01-03T01:22:18.460Z,977.14
2018-01-03T01:23:18.380Z,977.12
2018-01-03T01:24:18.302Z,977.13
2018-01-03T01:25:18.220Z,977.04
2018-01-03T01:26:18.140Z,976.94
2018-01-03T01:27:18.059Z,976.96
2018-01-03T01:28:17.978Z,976.94
2018-01-03T01:29:17.899Z,976.86
2018-01-03T01:30:17.821Z,976.73
2018-01-03T01:31:17.737Z,976.60
2018-01-03T01:32:17.658Z,976.55
2018-01-03T01:33:17.578Z,976.49
2018-01-03T01:34:17.498Z,976.42
2018-01-03T01:35:17.420Z,976.61
2018-01-03T01:36:17.339Z,976.60
2018-01-03T01:37:17.258Z,976.58
2018-01-03T01:38:17.178Z,976.62
2018-01-03T01:39:17.097Z,976.51
2018-01-03T01:40:17.017Z,976.52
2018-01-03T01:41:16.941Z,976.44
2018-01-03T01:42:16.858Z,976.49
2018-01-03T01:43:16.777Z,976.39
2018-01-03T01:44:16.697Z,976.36
2018-01-03T01:45:16.618Z,976.21
2018-01-03T01:46:16.541Z,976.16
2018-01-03T01:47:16.458Z,976.19
2018-01-03T01:48:16.376Z,976.16
2018-01-03T01:49:16.297Z,976.14
2018-01-03T01:50:16.217Z,976.07
2018-01-03T01:51:16.136Z,976.09
2018-01-03T01:52:16.057Z,976.08
2018-01-03T01:53:15.977Z,976.00
2018-01-03T01:54:15.897Z,976.00
2018-01-03T01:55:15.816Z,975.92
2018-01-03T01:56:15.737Z,975.94
2018-01-03T01:57:15.663Z,975.96
2018-01-03T01:58:15.578Z,976.09
2018-01-03T01:59:15.498Z,976.12
2018-01-03T02:00:15.417Z,975.89
2018-01-03T02:01:15.338Z,975.91
2018-01-03T02:02:15.258Z,975.98
2018-01-03T02:03:15.177Z,975.93
2018-01-03T02:04:15.098Z,975.79
2018-01-03T02:05:15.018Z,975.70
2018-01-03T02:06:14.944Z,975.79
2018-01-03T02:07:14.858Z,975.72
2018-01-03T02:08:14.780Z,975.77
2018-01-03T02:09:14.699Z,975.65
2018-01-03T02:10:14.619Z,975.60
2018-01-03T02:11:14.538Z,975.63
2018-01-03T02:12:14.459Z,975.56
2018-01-03T02:13:14.383Z,975.40
2018-01-03T02:14:14.300Z,975.38
2018-01-03T02:15:14.220Z,975.31
2018-01-03T02:16:14.140Z,975.38
2018-01-03T02:17:14.060Z,975.16
2018-01-03T02:18:13.981Z,974.96
2018-01-03T02:19:13.900Z,974.84
2018-01-03T02:20:13.819Z,974.74
2018-01-03T02:21:13.741Z,974.71
2018-01-03T02:22:13.661Z,974.82
2018-01-03T02:23:13.581Z,974.91
2018-01-03T02:24:13.503Z,974.82
2018-01-03T02:25:13.422Z,974.89
2018-01-03T02:26:13.342Z,974.66
2018-01-03T02:27:13.265Z,974.58
2018-01-03T02:28:13.185Z,974.53
2018-01-03T02:29:13.104Z,974.36
2018-01-03T02:30:13.027Z,974.45
2018-01-03T02:31:12.944Z,974.33
2018-01-03T02:32:12.864Z,974.36
2018-01-03T02:33:12.786Z,974.54
2018-01-03T02:34:12.708Z,974.64
2018-01-03T02:35:12.626Z,974.45
2018-01-03T02:36:12.545Z,974.18
2018-01-03T02:37:12.470Z,974.24
2018-01-03T02:38:12.387Z,974.15
2018-01-03T02:39:12.311Z,974.11
2018-01-03T02:40:12.228Z,974.20
2018-01-03T02:41:12.151Z,973.93
2018-01-03T02:42:12.071Z,973.99
2018-01-03T02:43:11.989Z,973.84
2018-01-03T02:44:11.910Z,973.71
2018-01-03T02:45:11.830Z,973.59
2018-01-03T02:46:11.751Z,973.70
2018-01-03T02:47:11.671Z,973.33
2018-01-03T02:48:11.592Z,973.52
2018-01-03T02:49:11.512Z,973.40
2018-01-03T02:50:11.434Z,973.44
2018-01-03T02:51:11.353Z,973.37
2018-01-03T02:52:11.274Z,973.37
2018-01-03T02:53:11.195Z,973.39
2018-01-03T02:54:11.115Z,973.24
2018-01-03T02:55:11.035Z,973.26
2018-01-03T02:56:10.957Z,973.20
2018-01-03T02:57:10.878Z,972.95
2018-01-03T02:58:10.799Z,972.92
2018-01-03T02:59:10.720Z,972.75
2018-01-03T03:00:10.640Z,972.78
2018-01-03T03:01:10.561Z,972.67
2018-01-03T03:02:10.482Z,972.77
2018-01-03T03:03:10.406Z,972.57
2018-01-03T03:04:10.323Z,972.53
2018-01-03T03:05:10.245Z,972.48
2018-01-03T03:06:10.166Z,972.47
2018-01-03T03:07:10.086Z,972.16
2018-01-03T03:08:10.007Z,972.13
2018-01-03T03:09:09.928Z,972.02
2018-01-03T03:10:09.851Z,971.92
2018-01-03T03:11:09.770Z,971.79
2018-01-03T03:12:09.691Z,971.73
2018-01-03T03:13:09.613Z,971.67
2018-01-03T03:14:09.534Z,971.73
2018-01-03T03:15:09.454Z,971.75
2018-01-03T03:16:09.426Z,971.74
2018-01-03T03:17:09.297Z,971.53
2018-01-03T03:18:09.218Z,971.37
2018-01-03T03:19:09.139Z,971.45
2018-01-03T03:20:09.061Z,971.30
2018-01-03T03:21:08.981Z,971.46
2018-01-03T03:22:08.902Z,971.18
2018-01-03T03:23:08.823Z,971.46
2018-01-03T03:24:08.744Z,971.42
2018-01-03T03:25:08.666Z,971.39
2018-01-03T03:26:08.587Z,971.20
2018-01-03T03:27:08.507Z,971.20
2018-01-03T03:28:08.429Z,970.98
2018-01-03T03:29:08.350Z,970.90
2018-01-03T03:30:08.272Z,970.53
2018-01-03T03:31:08.193Z,970.56
2018-01-03T03:32:08.113Z,970.47
2018-01-03T03:33:08.036Z,970.74
2018-01-03T03:34:07.956Z,970.67
2018-01-03T03:35:07.877Z,970.78
2018-01-03T03:36:07.799Z,971.19
2018-01-03T03:37:07.721Z,970.79
2018-01-03T03:38:07.642Z,970.44
2018-01-03T03:39:07.563Z,970.35
2018-01-03T03:40:07.485Z,970.34
2018-01-03T03:41:07.406Z,970.49
2018-01-03T03:42:07.328Z,970.73
2018-01-03T03:43:07.248Z,970.82
2018-01-03T03:44:07.171Z,970.94
2018-01-03T03:45:07.093Z,970.94
2018-01-03T03:46:07.013Z,970.82
2018-01-03T03:47:06.936Z,970.81
2018-01-03T03:48:06.856Z,970.51
2018-01-03T03:49:06.777Z,970.53
2018-01-03T03:50:06.698Z,970.29
2018-01-03T03:51:06.620Z,970.31
2018-01-03T03:52:06.542Z,970.35
2018-01-03T03:53:06.463Z,970.28
2018-01-03T03:54:06.386Z,970.11
2018-01-03T03:55:06.307Z,970.23
2018-01-03T03:56:06.228Z,970.05
2018-01-03T03:57:06.149Z,970.06
2018-01-03T03:58:06.071Z,970.12
2018-01-03T03:59:05.992Z,970.21
2018-01-03T04:00:05.914Z,970.32
2018-01-03T04:01:05.838Z,970.00
2018-01-03T04:02:05.757Z,969.96
2018-01-03T04:03:05.679Z,970.11
2018-01-03T04:04:05.799Z,969.92
2018-01-03T04:05:05.523Z,969.80
2018-01-03T04:06:05.444Z,969.88
2018-01-03T04:07:05.364Z,969.85
2018-01-03T04:08:05.287Z,969.67
2018-01-03T04:09:05.208Z,969.56
2018-01-03T04:10:05.129Z,969.44
2018-01-03T04:11:05.052Z,969.22
2018-01-03T04:12:04.973Z,969.02
2018-01-03T04:13:04.894Z,968.95
2018-01-03T04:14:04.817Z,969.00
2018-01-03T04:15:04.737Z,969.04
2018-01-03T04:16:04.659Z,968.91
2018-01-03T04:17:04.582Z,968.89
2018-01-03T04:18:04.502Z,968.85
2018-01-03T04:19:04.425Z,968.89
2018-01-03T04:20:04.353Z,968.79
2018-01-03T04:21:04.271Z,968.53
2018-01-03T04:22:04.189Z,968.52
2018-01-03T04:23:04.111Z,968.75
2018-01-03T04:24:04.037Z,968.53
2018-01-03T04:25:03.955Z,968.75
2018-01-03T04:26:03.877Z,968.53
2018-01-03T04:27:03.798Z,968.49
2018-01-03T04:28:03.719Z,968.55
2018-01-03T04:29:03.642Z,968.48
2018-01-03T04:30:03.564Z,968.51
2018-01-03T04:31:03.485Z,968.43
2018-01-03T04:32:03.407Z,968.25
2018-01-03T04:33:03.329Z,968.25
2018-01-03T04:34:03.252Z,968.15
2018-01-03T04:35:03.172Z,968.01
2018-01-03T04:36:03.094Z,968.10
2018-01-03T04:37:03.016Z,968.08
2018-01-03T04:38:02.939Z,967.95
2018-01-03T04:39:02.860Z,968.07
2018-01-03T04:40:02.782Z,967.89
2018-01-03T04:41:28.377Z,968.09
2018-01-03T04:42:02.629Z,967.86
2018-01-03T04:43:02.549Z,967.72
2018-01-03T04:44:02.468Z,967.77
2018-01-03T04:45:02.541Z,968.21
2018-01-03T04:46:02.313Z,967.67
2018-01-03T04:47:02.235Z,967.74
2018-01-03T04:48:02.157Z,967.92
2018-01-03T04:49:02.079Z,967.66
2018-01-03T04:50:02.001Z,967.38
2018-01-03T04:51:01.922Z,967.28
2018-01-03T04:52:01.844Z,967.11
2018-01-03T04:53:01.767Z,967.12
2018-01-03T04:54:01.689Z,967.15
2018-01-03T04:55:01.610Z,967.12
2018-01-03T04:56:01.532Z,967.12
2018-01-03T04:57:01.455Z,967.03
2018-01-03T04:58:01.377Z,966.77
2018-01-03T04:59:01.300Z,966.56
2018-01-03T05:00:01.219Z,966.35
2018-01-03T05:01:01.143Z,966.58
2018-01-03T05:02:01.066Z,966.97
2018-01-03T05:03:00.986Z,966.72
2018-01-03T05:04:00.910Z,966.77
2018-01-03T05:05:00.831Z,966.99
2018-01-03T05:06:00.754Z,966.67
2018-01-03T05:07:00.675Z,966.53
2018-01-03T05:08:00.597Z,966.48
2018-01-03T05:09:00.519Z,966.44
2018-01-03T05:10:00.443Z,966.26
2018-01-03T05:11:00.364Z,966.23
2018-01-03T05:12:00.286Z,966.38
2018-01-03T05:13:00.209Z,966.55
2018-01-03T05:14:00.131Z,966.44
2018-01-03T05:15:00.059Z,966.26
2018-01-03T05:15:59.975Z,966.28
2018-01-03T05:16:59.897Z,965.91
2018-01-03T05:17:59.820Z,965.47
2018-01-03T05:18:59.742Z,965.44
2018-01-03T05:19:59.664Z,965.71
2018-01-03T05:20:59.587Z,965.90
2018-01-03T05:21:59.509Z,965.67
2018-01-03T05:22:59.431Z,965.53
2018-01-03T05:23:59.353Z,965.31
2018-01-03T05:24:59.323Z,965.57
2018-01-03T05:25:59.198Z,965.62
2018-01-03T05:26:59.120Z,965.43
2018-01-03T05:27:59.045Z,965.26
2018-01-03T05:28:58.966Z,965.25
2018-01-03T05:29:58.889Z,965.24
2018-01-03T05:30:58.809Z,965.06
2018-01-03T05:31:58.736Z,965.22
2018-01-03T05:32:58.655Z,964.88
2018-01-03T05:33:58.578Z,964.80
2018-01-03T05:34:58.500Z,964.97
2018-01-03T05:35:58.422Z,964.93
2018-01-03T05:36:58.345Z,964.89
2018-01-03T05:37:58.268Z,965.20
2018-01-03T05:38:58.189Z,964.96
2018-01-03T05:39:58.113Z,964.64
2018-01-03T05:40:58.036Z,964.66
2018-01-03T05:41:57.959Z,964.44
2018-01-03T05:42:57.886Z,964.36
2018-01-03T05:43:57.803Z,964.19
2018-01-03T05:44:57.726Z,964.30
2018-01-03T05:45:57.799Z,964.17
2018-01-03T05:46:57.571Z,964.29
2018-01-03T05:47:57.494Z,964.30
2018-01-03T05:48:57.417Z,964.12
2018-01-03T05:49:57.340Z,963.89
2018-01-03T05:50:57.262Z,963.70
2018-01-03T05:51:57.193Z,963.68
2018-01-03T05:52:57.108Z,963.81
2018-01-03T05:53:57.031Z,963.84
2018-01-03T05:54:56.953Z,963.78
2018-01-03T05:55:56.877Z,963.71
2018-01-03T05:56:56.799Z,963.46
2018-01-03T05:57:56.723Z,963.64
2018-01-03T05:58:56.647Z,963.68
2018-01-03T05:59:56.569Z,963.54
2018-01-03T06:00:56.515Z,963.49
2018-01-03T06:01:56.415Z,963.49
2018-01-03T06:02:56.338Z,963.36
2018-01-03T06:03:56.267Z,963.39
2018-01-03T06:04:56.184Z,963.46
2018-01-03T06:05:56.107Z,963.44
2018-01-03T06:06:56.029Z,963.48
2018-01-03T06:07:55.953Z,963.43
2018-01-03T06:08:55.876Z,963.43
2018-01-03T06:09:55.798Z,963.26
2018-01-03T06:10:55.722Z,963.40
2018-01-03T06:11:55.645Z,963.22
2018-01-03T06:12:55.571Z,963.07
2018-01-03T06:13:55.493Z,962.88
2018-01-03T06:14:55.415Z,963.33
2018-01-03T06:15:55.338Z,963.18
2018-01-03T06:16:55.262Z,963.09
2018-01-03T06:17:55.186Z,963.13
2018-01-03T06:18:55.108Z,963.07
2018-01-03T06:19:55.035Z,963.06
2018-01-03T06:20:54.955Z,962.71
2018-01-03T06:21:54.878Z,962.69
2018-01-03T06:22:54.800Z,962.82
2018-01-03T06:23:54.724Z,962.75
2018-01-03T06:24:54.647Z,962.77
2018-01-03T06:25:54.571Z,962.76
2018-01-03T06:26:54.493Z,962.64
2018-01-03T06:27:54.417Z,962.89
2018-01-03T06:28:54.391Z,962.66
2018-01-03T06:29:54.264Z,962.46
2018-01-03T06:30:54.186Z,962.84
2018-01-03T06:31:54.110Z,962.98
2018-01-03T06:32:54.033Z,963.53
2018-01-03T06:33:53.956Z,964.17
2018-01-03T06:34:53.879Z,965.01
2018-01-03T06:35:53.801Z,965.75
2018-01-03T06:36:53.776Z,966.44
2018-01-03T06:37:53.648Z,965.91
2018-01-03T06:38:53.569Z,965.88
2018-01-03T06:39:53.494Z,965.49
2018-01-03T06:40:53.416Z,965.16
2018-01-03T06:41:53.339Z,964.97
2018-01-03T06:42:53.260Z,964.63
2018-01-03T06:43:53.186Z,964.72
2018-01-03T06:44:53.105Z,964.78
2018-01-03T06:45:53.027Z,964.66
2018-01-03T06:46:52.948Z,964.83
2018-01-03T06:47:52.870Z,964.94
2018-01-03T06:48:52.792Z,965.08
2018-01-03T06:49:52.713Z,965.39
2018-01-03T06:50:52.634Z,965.24
2018-01-03T06:51:52.555Z,965.27
2018-01-03T06:52:52.477Z,965.48
2018-01-03T06:53:52.398Z,965.75
2018-01-03T06:54:52.318Z,965.83
2018-01-03T06:55:52.240Z,965.97
2018-01-03T06:56:52.161Z,965.95
2018-01-03T06:57:52.083Z,966.03
2018-01-03T06:58:52.004Z,966.14
2018-01-03T06:59:51.923Z,966.24
2018-01-03T07:00:51.845Z,966.42
2018-01-03T07:01:51.766Z,966.60
2018-01-03T07:02:51.686Z,966.64
2018-01-03T07:03:51.606Z,966.62
2018-01-03T07:04:51.528Z,966.45
2018-01-03T07:05:51.449Z,966.49
2018-01-03T07:06:51.369Z,966.34
2018-01-03T07:07:51.289Z,966.16
2018-01-03T07:08:51.211Z,966.08
2018-01-03T07:09:51.132Z,966.04
2018-01-03T07:10:51.051Z,966.16
2018-01-03T07:11:50.972Z,966.19
2018-01-03T07:12:50.893Z,966.21
2018-01-03T07:13:50.814Z,966.03
2018-01-03T07:14:50.734Z,965.70
2018-01-03T07:15:50.656Z,965.46
2018-01-03T07:16:50.576Z,965.45
2018-01-03T07:17:50.498Z,965.75
2018-01-03T07:18:50.417Z,966.07
2018-01-03T07:19:50.339Z,966.04
2018-01-03T07:20:50.259Z,965.98
2018-01-03T07:21:50.181Z,965.92
2018-01-03T07:22:50.100Z,965.91
2018-01-03T07:23:50.022Z,965.95
2018-01-03T07:24:49.943Z,966.04
2018-01-03T07:25:49.864Z,966.31
2018-01-03T07:26:49.784Z,966.60
2018-01-03T07:27:49.705Z,966.52
2018-01-03T07:28:49.626Z,966.65
2018-01-03T07:29:49.547Z,966.90
2018-01-03T07:30:49.470Z,966.93
2018-01-03T07:31:49.388Z,966.84
2018-01-03T07:32:49.309Z,966.91
2018-01-03T07:33:49.230Z,966.67
2018-01-03T07:34:49.152Z,966.43
2018-01-03T07:35:49.071Z,966.40
2018-01-03T07:36:48.993Z,966.33
2018-01-03T07:37:48.915Z,966.33
2018-01-03T07:38:48.834Z,966.49
2018-01-03T07:39:48.755Z,966.59
2018-01-03T07:40:48.676Z,966.64
2018-01-03T07:41:48.598Z,966.59
2018-01-03T07:42:48.517Z,966.59
2018-01-03T07:43:48.438Z,966.40
2018-01-03T07:44:48.358Z,966.69
2018-01-03T07:45:48.281Z,966.64
2018-01-03T07:46:48.201Z,966.74
2018-01-03T07:47:48.123Z,966.72
2018-01-03T07:48:48.044Z,966.86
2018-01-03T07:49:47.964Z,966.61
2018-01-03T07:50:47.885Z,966.48
2018-01-03T07:51:47.806Z,966.43
2018-01-03T07:52:47.728Z,966.49
2018-01-03T07:53:47.648Z,966.42
2018-01-03T07:54:47.568Z,966.45
2018-01-03T07:55:47.489Z,966.50
2018-01-03T07:56:47.410Z,966.55
2018-01-03T07:57:47.331Z,966.61
2018-01-03T07:58:47.251Z,966.67
2018-01-03T07:59:47.173Z,966.75
2018-01-03T08:00:47.094Z,966.70
2018-01-03T08:01:47.014Z,966.81
2018-01-03T08:02:46.935Z,966.78
2018-01-03T08:03:46.856Z,966.96
2018-01-03T08:04:46.777Z,966.89
2018-01-03T08:05:46.698Z,966.74
2018-01-03T08:06:46.618Z,966.66
2018-01-03T08:07:46.539Z,966.59
2018-01-03T08:08:46.460Z,966.68
2018-01-03T08:09:46.382Z,966.63
2018-01-03T08:10:46.300Z,966.63
2018-01-03T08:11:46.223Z,966.73
2018-01-03T08:12:46.142Z,966.53
2018-01-03T08:13:46.063Z,966.56
2018-01-03T08:14:45.983Z,966.35
2018-01-03T08:15:45.904Z,966.31
2018-01-03T08:16:45.826Z,966.18
2018-01-03T08:17:45.746Z,966.08
2018-01-03T08:18:45.669Z,966.05
2018-01-03T08:19:45.587Z,965.92
2018-01-03T08:20:45.508Z,965.78
2018-01-03T08:21:45.427Z,965.75
2018-01-03T08:22:45.348Z,965.78
2018-01-03T08:23:45.268Z,965.76
2018-01-03T08:24:45.190Z,965.68
2018-01-03T08:25:45.110Z,965.57
2018-01-03T08:26:45.030Z,965.50
2018-01-03T08:27:44.956Z,965.42
2018-01-03T08:28:44.871Z,965.34
2018-01-03T08:29:44.792Z,965.30
2018-01-03T08:30:44.712Z,965.49
2018-01-03T08:31:44.636Z,965.40
2018-01-03T08:32:44.555Z,965.29
2018-01-03T08:33:44.475Z,965.23
2018-01-03T08:34:44.396Z,965.03
2018-01-03T08:35:44.316Z,965.20
2018-01-03T08:36:44.238Z,965.18
2018-01-03T08:37:44.158Z,965.13
2018-01-03T08:38:44.079Z,965.08
2018-01-03T08:39:44.000Z,965.04
2018-01-03T08:40:43.922Z,965.15
2018-01-03T08:41:43.842Z,965.20
2018-01-03T08:42:43.762Z,965.11
2018-01-03T08:43:43.683Z,965.19
2018-01-03T08:44:43.605Z,965.24
2018-01-03T08:45:43.526Z,965.19
2018-01-03T08:46:43.448Z,965.17
2018-01-03T08:47:43.369Z,965.31
2018-01-03T08:48:43.290Z,965.32
2018-01-03T08:49:43.214Z,965.36
2018-01-03T08:50:43.131Z,965.53
2018-01-03T08:51:43.051Z,965.63
2018-01-03T08:52:42.973Z,965.63
2018-01-03T08:53:42.894Z,965.55
2018-01-03T08:54:42.815Z,965.76
2018-01-03T08:55:42.739Z,965.63
2018-01-03T08:56:42.658Z,965.66
2018-01-03T08:57:42.579Z,965.73
2018-01-03T08:58:42.500Z,965.73
2018-01-03T08:59:42.421Z,965.78
2018-01-03T09:00:42.342Z,965.75
2018-01-03T09:01:42.265Z,965.73
2018-01-03T09:02:42.187Z,965.66
2018-01-03T09:03:42.106Z,965.60
2018-01-03T09:04:42.029Z,965.60
2018-01-03T09:05:41.950Z,965.57
2018-01-03T09:06:41.872Z,965.67
2018-01-03T09:07:41.793Z,965.83
2018-01-03T09:08:41.714Z,965.97
2018-01-03T09:09:41.636Z,965.90
2018-01-03T09:10:41.561Z,965.89
2018-01-03T09:11:41.483Z,965.86
2018-01-03T09:12:41.400Z,965.80
2018-01-03T09:13:41.323Z,965.57
2018-01-03T09:14:41.244Z,965.50
2018-01-03T09:15:41.166Z,965.71
2018-01-03T09:16:41.087Z,965.84
2018-01-03T09:17:41.008Z,965.81
2018-01-03T09:18:40.929Z,965.91
2018-01-03T09:19:40.851Z,965.85
2018-01-03T09:20:40.774Z,965.94
2018-01-03T09:21:40.696Z,965.96
2018-01-03T09:22:40.616Z,965.98
2018-01-03T09:23:40.536Z,966.03
2018-01-03T09:24:40.460Z,966.07
2018-01-03T09:25:40.381Z,966.22
2018-01-03T09:26:40.302Z,966.51
2018-01-03T09:27:40.224Z,966.36
2018-01-03T09:28:40.145Z,966.44
2018-01-03T09:29:40.066Z,966.25
2018-01-03T09:30:39.988Z,966.29
2018-01-03T09:31:39.910Z,966.20
2018-01-03T09:32:39.830Z,966.18
2018-01-03T09:33:39.757Z,966.30
2018-01-03T09:34:39.674Z,966.29
2018-01-03T09:35:39.596Z,966.37
2018-01-03T09:36:39.519Z,966.31
2018-01-03T09:37:39.439Z,966.30
2018-01-03T09:38:39.361Z,966.46
2018-01-03T09:39:39.282Z,966.37
2018-01-03T09:40:39.203Z,966.41
2018-01-03T09:41:39.125Z,966.34
2018-01-03T09:42:39.046Z,966.49
2018-01-03T09:43:38.968Z,966.49
2018-01-03T09:44:38.890Z,966.65
2018-01-03T09:45:38.812Z,966.73
2018-01-03T09:46:38.733Z,966.71
2018-01-03T09:47:38.654Z,966.75
2018-01-03T09:48:38.577Z,966.83
2018-01-03T09:49:38.498Z,966.84
2018-01-03T09:50:38.420Z,966.73
2018-01-03T09:51:38.341Z,966.82
2018-01-03T09:52:38.262Z,966.80
2018-01-03T09:53:38.186Z,966.96
2018-01-03T09:54:38.105Z,966.98
2018-01-03T09:55:38.028Z,966.99
2018-01-03T09:56:37.948Z,966.90
2018-01-03T09:57:37.870Z,967.03
2018-01-03T09:58:37.791Z,967.01
2018-01-03T09:59:37.713Z,967.08
2018-01-03T10:00:37.636Z,967.10
2018-01-03T10:01:37.556Z,967.05
2018-01-03T10:02:37.477Z,967.21
2018-01-03T10:03:37.405Z,967.27
2018-01-03T10:04:37.321Z,967.39
2018-01-03T10:05:37.242Z,967.44
2018-01-03T10:06:37.163Z,967.34
2018-01-03T10:07:37.085Z,967.53
2018-01-03T10:08:37.006Z,967.54
2018-01-03T10:09:36.930Z,967.55
2018-01-03T10:10:36.849Z,967.59
2018-01-03T10:11:36.771Z,967.72
2018-01-03T10:12:36.692Z,967.58
2018-01-03T10:13:36.614Z,967.57
2018-01-03T10:14:36.535Z,967.63
2018-01-03T10:15:36.457Z,967.61
2018-01-03T10:16:36.378Z,967.56
2018-01-03T10:17:36.300Z,967.59
2018-01-03T10:18:36.221Z,967.67
2018-01-03T10:19:36.142Z,967.70
2018-01-03T10:20:36.064Z,967.65
2018-01-03T10:21:35.984Z,967.72
2018-01-03T10:22:35.906Z,967.69
2018-01-03T10:23:35.828Z,967.64
2018-01-03T10:24:35.749Z,967.88
2018-01-03T10:25:35.672Z,967.71
2018-01-03T10:26:35.591Z,967.82
2018-01-03T10:27:35.513Z,967.84
2018-01-03T10:28:35.435Z,967.76
2018-01-03T10:29:35.358Z,967.85
2018-01-03T10:30:35.278Z,968.13
2018-01-03T10:31:35.200Z,968.13
2018-01-03T10:32:35.120Z,967.98
2018-01-03T10:33:35.042Z,968.20
2018-01-03T10:34:34.963Z,968.18
2018-01-03T10:35:34.889Z,968.20
2018-01-03T10:36:34.806Z,968.21
2018-01-03T10:37:34.728Z,968.12
2018-01-03T10:38:34.648Z,968.17
2018-01-03T10:39:34.568Z,968.23
2018-01-03T10:40:34.490Z,968.26
2018-01-03T10:41:34.412Z,968.52
2018-01-03T10:42:34.377Z,968.42
2018-01-03T10:43:34.253Z,968.32
2018-01-03T10:44:34.175Z,968.43
2018-01-03T10:45:34.096Z,968.35
2018-01-03T10:46:34.016Z,968.32
2018-01-03T10:47:33.936Z,968.48
2018-01-03T10:48:33.858Z,968.44
2018-01-03T10:49:33.779Z,968.55
2018-01-03T10:50:33.699Z,968.40
2018-01-03T10:51:33.620Z,968.32
2018-01-03T10:52:33.541Z,968.41
2018-01-03T10:53:33.463Z,968.46
2018-01-03T10:54:33.383Z,968.42
2018-01-03T10:55:33.307Z,968.47
2018-01-03T10:56:33.225Z,968.43
2018-01-03T10:57:33.146Z,968.55
2018-01-03T10:58:33.067Z,968.38
2018-01-03T10:59:32.989Z,968.52
2018-01-03T11:00:32.908Z,968.68
2018-01-03T11:01:32.831Z,968.45
2018-01-03T11:02:32.749Z,968.49
2018-01-03T11:03:32.670Z,968.49
2018-01-03T11:04:32.592Z,968.49
2018-01-03T11:05:32.513Z,968.60
2018-01-03T11:06:32.434Z,968.65
2018-01-03T11:07:32.359Z,968.69
2018-01-03T11:08:32.277Z,968.86
2018-01-03T11:09:32.199Z,968.71
2018-01-03T11:10:32.121Z,969.00
2018-01-03T11:11:32.039Z,968.87
2018-01-03T11:12:31.963Z,968.75
2018-01-03T11:13:31.884Z,968.85
2018-01-03T11:14:31.805Z,968.89
2018-01-03T11:15:31.727Z,969.05
2018-01-03T11:16:31.648Z,968.93
2018-01-03T11:17:31.569Z,969.18
2018-01-03T11:18:31.490Z,968.93
2018-01-03T11:19:31.411Z,969.02
2018-01-03T11:20:31.333Z,969.34
2018-01-03T11:21:31.255Z,969.17
2018-01-03T11:22:31.176Z,969.12
2018-01-03T11:23:31.098Z,969.40
2018-01-03T11:24:31.019Z,969.28
2018-01-03T11:25:30.941Z,969.33
2018-01-03T11:26:30.864Z,969.19
2018-01-03T11:27:30.784Z,969.28
2018-01-03T11:28:30.706Z,969.26
2018-01-03T11:29:30.627Z,969.40
2018-01-03T11:30:30.550Z,969.33
2018-01-03T11:31:30.471Z,969.39
2018-01-03T11:32:30.394Z,969.46
2018-01-03T11:33:30.314Z,969.46
2018-01-03T11:34:30.235Z,969.57
2018-01-03T11:35:30.157Z,969.51
2018-01-03T11:36:30.079Z,969.39
2018-01-03T11:37:30.001Z,969.67
2018-01-03T11:38:29.922Z,969.79
2018-01-03T11:39:29.843Z,969.74
2018-01-03T11:40:29.765Z,969.82
2018-01-03T11:41:29.687Z,969.91
2018-01-03T11:42:29.610Z,969.82
2018-01-03T11:43:29.529Z,969.74
2018-01-03T11:44:29.452Z,969.95
2018-01-03T11:45:29.382Z,969.89
2018-01-03T11:46:29.293Z,969.84
2018-01-03T11:47:29.215Z,969.98
2018-01-03T11:48:29.138Z,969.89
2018-01-03T11:49:29.059Z,969.96
2018-01-03T11:50:28.980Z,970.10
2018-01-03T11:51:28.901Z,970.10
2018-01-03T11:52:28.823Z,970.14
2018-01-03T11:53:28.746Z,969.99
2018-01-03T11:54:28.666Z,970.14
2018-01-03T11:55:28.590Z,970.21
2018-01-03T11:56:28.510Z,970.16
2018-01-03T11:57:28.432Z,970.09
2018-01-03T11:58:28.353Z,970.23
2018-01-03T11:59:28.274Z,970.20
2018-01-03T12:00:28.197Z,970.26
2018-01-03T12:01:28.119Z,970.17
2018-01-03T12:02:28.041Z,970.16
2018-01-03T12:03:27.965Z,970.26
2018-01-03T12:04:27.884Z,970.33
2018-01-03T12:05:27.806Z,970.29
2018-01-03T12:06:27.736Z,970.34
2018-01-03T12:07:27.649Z,970.33
2018-01-03T12:08:27.572Z,970.35
2018-01-03T12:09:27.495Z,970.42
2018-01-03T12:10:27.415Z,970.44
2018-01-03T12:11:27.336Z,970.52
2018-01-03T12:12:27.260Z,970.49
2018-01-03T12:13:27.180Z,970.62
2018-01-03T12:14:27.101Z,970.63
2018-01-03T12:15:27.030Z,970.54
2018-01-03T12:16:26.945Z,970.56
2018-01-03T12:17:26.867Z,970.66
2018-01-03T12:18:26.788Z,970.61
2018-01-03T12:19:26.710Z,970.63
2018-01-03T12:20:26.632Z,970.58
2018-01-03T12:21:26.554Z,970.56
2018-01-03T12:22:26.479Z,970.61
2018-01-03T12:23:26.399Z,970.78
2018-01-03T12:24:26.320Z,970.53
2018-01-03T12:25:26.243Z,970.28
2018-01-03T12:26:26.163Z,970.77
2018-01-03T12:27:26.086Z,970.70